createdAt,value
2019-05-14T00:07:18.264Z,47.70
2019-05-14T00:17:23.757Z,47.90
2019-05-14T00:27:31.203Z,48.00
2019-05-14T00:37:36.680Z,47.70
2019-05-14T00:47:42.259Z,47.30
2019-05-14T00:57:47.763Z,46.90
2019-05-14T01:07:53.021Z,46.60
2019-05-14T01:17:58.340Z,46.30
2019-05-14T01:28:04.167Z,46.00
2019-05-14T01:38:11.340Z,46.10
2019-05-14T01:48:16.411Z,46.20
2019-05-14T01:58:22.208Z,46.20
2019-05-14T02:08:27.660Z,46.30
2019-05-14T02:18:33.142Z,46.40
2019-05-14T02:28:38.407Z,46.70
2019-05-14T02:38:43.673Z,46.80
2019-05-14T02:48:49.377Z,47.10
2019-05-14T02:58:55.628Z,47.20
2019-05-14T03:09:00.952Z,47.60
2019-05-14T03:19:09.724Z,48.10
2019-05-14T03:29:13.686Z,48.20
2019-05-14T03:39:19.171Z,48.70
2019-05-14T03:49:24.769Z,48.70
2019-05-14T03:59:30.364Z,48.60
2019-05-14T04:09:39.778Z,48.80
2019-05-14T04:19:45.589Z,48.50
2019-05-14T04:29:53.680Z,48.20
2019-05-14T04:39:59.419Z,48.30
2019-05-14T04:50:05.773Z,48.30
2019-05-14T05:00:12.551Z,48.20
2019-05-14T05:10:19.295Z,48.10
2019-05-14T05:20:25.106Z,48.10
2019-05-14T05:30:30.418Z,48.10
2019-05-14T05:40:36.084Z,48.20
2019-05-14T05:50:41.390Z,48.00
2019-05-14T06:00:49.541Z,48.70
2019-05-14T06:10:53.792Z,47.80
2019-05-14T06:20:59.387Z,47.70
2019-05-14T06:31:04.648Z,47.50
2019-05-14T06:41:09.917Z,47.40
2019-05-14T06:51:15.237Z,47.50
2019-05-14T07:01:21.417Z,48.10
2019-05-14T07:11:29.003Z,47.40
2019-05-14T07:21:33.642Z,47.20
2019-05-14T07:31:38.928Z,47.10
2019-05-14T07:41:44.293Z,47.20
2019-05-14T07:51:49.676Z,46.80
2019-05-14T08:01:55.268Z,46.70
2019-05-14T08:12:00.551Z,46.50
2019-05-14T08:22:06.063Z,46.40
2019-05-14T08:32:11.668Z,46.00
2019-05-14T08:42:18.590Z,45.50
2019-05-14T08:52:24.131Z,45.30
2019-05-14T09:02:29.476Z,45.10
2019-05-14T09:12:34.791Z,45.00
2019-05-14T09:22:40.247Z,44.70
2019-05-14T09:32:46.654Z,44.70
2019-05-14T09:42:52.957Z,44.30
2019-05-14T09:52:59.275Z,44.20
2019-05-14T10:03:04.753Z,44.60
2019-05-14T10:13:10.237Z,44.00
2019-05-14T10:23:15.588Z,44.20
2019-05-14T10:33:20.840Z,43.30
2019-05-14T10:43:28.590Z,41.90
2019-05-14T10:53:33.072Z,42.30
2019-05-14T11:03:38.814Z,42.00
2019-05-14T11:13:44.307Z,40.00
2019-05-14T11:23:49.838Z,41.00
2019-05-14T11:33:55.124Z,41.90
2019-05-14T11:44:00.380Z,39.70
2019-05-14T11:54:05.695Z,39.10
2019-05-14T12:04:11.180Z,39.00
2019-05-14T12:14:18.979Z,39.10
2019-05-14T12:24:23.724Z,39.80
2019-05-14T12:34:29.705Z,39.10
2019-05-14T12:44:38.158Z,38.40
2019-05-14T12:54:42.844Z,39.30
2019-05-14T13:04:48.702Z,40.20
2019-05-14T13:14:54.087Z,38.50
2019-05-14T13:24:59.556Z,36.80
2019-05-14T13:35:09.649Z,35.70
2019-05-14T13:45:13.190Z,36.40
2019-05-14T13:55:19.417Z,37.90
2019-05-14T14:05:25.308Z,38.50
2019-05-14T14:15:31.634Z,37.80
2019-05-14T14:25:39.314Z,37.30
2019-05-14T14:35:43.912Z,37.80
2019-05-14T14:45:50.852Z,38.50
2019-05-14T14:55:56.127Z,38.20
2019-05-14T15:06:01.395Z,38.40
2019-05-14T15:16:12.815Z,38.10
2019-05-14T15:26:13.777Z,36.50
2019-05-14T15:36:19.781Z,35.70
2019-05-14T15:46:25.293Z,37.00
2019-05-14T15:56:30.544Z,38.00
2019-05-14T16:06:38.419Z,38.30
2019-05-14T16:16:42.745Z,38.30
2019-05-14T16:26:48.325Z,38.60
2019-05-14T16:36:53.595Z,38.80
2019-05-14T16:46:58.995Z,38.70
2019-05-14T16:57:04.348Z,38.60
2019-05-14T17:07:10.949Z,38.90
2019-05-14T17:17:16.246Z,38.80
2019-05-14T17:27:21.756Z,38.40
2019-05-14T17:37:28.584Z,38.50
2019-05-14T17:47:33.948Z,38.50
2019-05-14T17:57:45.814Z,38.60
2019-05-14T18:07:48.296Z,38.90
2019-05-14T18:17:53.380Z,39.10
2019-05-14T18:27:59.764Z,39.50
2019-05-14T18:38:05.028Z,39.70
2019-05-14T18:48:10.516Z,40.00
2019-05-14T18:58:19.299Z,40.20
2019-05-14T19:08:23.052Z,41.10
2019-05-14T19:18:28.764Z,40.70
2019-05-14T19:28:34.247Z,40.90
2019-05-14T19:38:39.571Z,41.20
2019-05-14T19:48:44.825Z,41.30
2019-05-14T19:58:50.333Z,41.60
2019-05-14T20:08:58.584Z,41.80
2019-05-14T20:19:02.772Z,42.00
2019-05-14T20:29:08.868Z,41.90
2019-05-14T20:39:14.279Z,42.10
2019-05-14T20:49:19.554Z,42.40
2019-05-14T20:59:24.880Z,42.50
2019-05-14T21:09:30.173Z,42.60
2019-05-14T21:19:35.433Z,42.90
2019-05-14T21:29:40.687Z,43.10
2019-05-14T21:39:45.941Z,43.20
2019-05-14T21:49:51.190Z,43.30
2019-05-14T21:59:58.724Z,43.50
2019-05-14T22:10:04.668Z,43.60
2019-05-14T22:20:09.960Z,43.80
2019-05-14T22:30:15.388Z,43.90
2019-05-14T22:40:21.523Z,44.20
2019-05-14T22:50:29.185Z,44.70
2019-05-14T23:00:33.826Z,45.10
2019-05-14T23:10:39.127Z,45.60
2019-05-14T23:20:45.044Z,45.70
2019-05-14T23:30:50.435Z,46.10
2019-05-14T23:40:55.751Z,46.50
2019-05-14T23:51:00.999Z,46.90
